sensor_id;sensor_type;location;lat;lon;timestamp;temperature;humidity
5868;DHT22;2960;49.142;7.768;2023-11-18T00:02:01;8.50;81.50
5868;DHT22;2960;49.142;7.768;2023-11-18T00:04:28;8.50;81.50
5868;DHT22;2960;49.142;7.768;2023-11-18T00:06:58;8.50;81.50
5868;DHT22;2960;49.142;7.768;2023-11-18T00:09:26;8.50;81.60
5868;DHT22;2960;49.142;7.768;2023-11-18T00:11:54;8.50;81.60
5868;DHT22;2960;49.142;7.768;2023-11-18T00:14:24;8.40;81.40
5868;DHT22;2960;49.142;7.768;2023-11-18T00:16:51;8.40;81.40
5868;DHT22;2960;49.142;7.768;2023-11-18T00:19:18;8.40;81.50
5868;DHT22;2960;49.142;7.768;2023-11-18T00:21:45;8.40;81.50
5868;DHT22;2960;49.142;7.768;2023-11-18T00:24:13;8.30;81.40
5868;DHT22;2960;49.142;7.768;2023-11-18T00:26:40;8.30;81.40
5868;DHT22;2960;49.142;7.768;2023-11-18T00:29:08;8.30;81.40
5868;DHT22;2960;49.142;7.768;2023-11-18T00:31:36;8.30;81.40
5868;DHT22;2960;49.142;7.768;2023-11-18T00:34:03;8.30;81.40
5868;DHT22;2960;49.142;7.768;2023-11-18T00:36:30;8.30;81.50
5868;DHT22;2960;49.142;7.768;2023-11-18T00:38:57;8.20;81.40
5868;DHT22;2960;49.142;7.768;2023-11-18T00:41:25;8.20;81.40
5868;DHT22;2960;49.142;7.768;2023-11-18T00:43:52;8.20;81.40
5868;DHT22;2960;49.142;7.768;2023-11-18T00:46:21;8.20;81.50
5868;DHT22;2960;49.142;7.768;2023-11-18T00:48:48;8.20;81.40
5868;DHT22;2960;49.142;7.768;2023-11-18T00:51:16;8.20;81.40
5868;DHT22;2960;49.142;7.768;2023-11-18T00:53:44;8.20;81.40
5868;DHT22;2960;49.142;7.768;2023-11-18T00:56:15;8.20;81.30
5868;DHT22;2960;49.142;7.768;2023-11-18T00:58:43;8.20;81.40
5868;DHT22;2960;49.142;7.768;2023-11-18T01:01:10;8.20;82.10
5868;DHT22;2960;49.142;7.768;2023-11-18T01:03:39;8.20;81.40
5868;DHT22;2960;49.142;7.768;2023-11-18T01:06:07;8.20;81.30
5868;DHT22;2960;49.142;7.768;2023-11-18T01:08:34;8.20;81.40
5868;DHT22;2960;49.142;7.768;2023-11-18T01:11:01;8.20;81.30
5868;DHT22;2960;49.142;7.768;2023-11-18T01:13:30;8.20;81.40
5868;DHT22;2960;49.142;7.768;2023-11-18T01:15:57;8.20;81.30
5868;DHT22;2960;49.142;7.768;2023-11-18T01:18:25;8.20;81.40
5868;DHT22;2960;49.142;7.768;2023-11-18T01:20:53;8.20;81.40
5868;DHT22;2960;49.142;7.768;2023-11-18T01:23:21;8.20;81.40
5868;DHT22;2960;49.142;7.768;2023-11-18T01:25:48;8.20;81.40
5868;DHT22;2960;49.142;7.768;2023-11-18T01:28:16;8.20;81.40
5868;DHT22;2960;49.142;7.768;2023-11-18T01:30:43;8.20;81.40
5868;DHT22;2960;49.142;7.768;2023-11-18T01:33:10;8.20;81.40
5868;DHT22;2960;49.142;7.768;2023-11-18T01:35:38;8.20;81.40
5868;DHT22;2960;49.142;7.768;2023-11-18T01:38:06;8.20;81.40
5868;DHT22;2960;49.142;7.768;2023-11-18T01:40:34;8.20;81.40
5868;DHT22;2960;49.142;7.768;2023-11-18T01:43:01;8.20;81.40
5868;DHT22;2960;49.142;7.768;2023-11-18T01:45:31;8.20;81.50
5868;DHT22;2960;49.142;7.768;2023-11-18T01:47:59;8.20;81.50
5868;DHT22;2960;49.142;7.768;2023-11-18T01:50:27;8.20;81.60
5868;DHT22;2960;49.142;7.768;2023-11-18T01:52:55;8.20;81.60
5868;DHT22;2960;49.142;7.768;2023-11-18T01:55:24;8.20;81.60
5868;DHT22;2960;49.142;7.768;2023-11-18T01:57:51;8.20;81.60
5868;DHT22;2960;49.142;7.768;2023-11-18T02:00:18;8.20;81.60
5868;DHT22;2960;49.142;7.768;2023-11-18T02:02:48;8.20;81.70
5868;DHT22;2960;49.142;7.768;2023-11-18T02:05:15;8.20;81.70
5868;DHT22;2960;49.142;7.768;2023-11-18T02:07:43;8.20;81.70
5868;DHT22;2960;49.142;7.768;2023-11-18T02:10:12;8.20;82.50
5868;DHT22;2960;49.142;7.768;2023-11-18T02:12:44;8.20;81.80
5868;DHT22;2960;49.142;7.768;2023-11-18T02:15:16;8.20;81.90
5868;DHT22;2960;49.142;7.768;2023-11-18T02:17:45;8.20;81.90
5868;DHT22;2960;49.142;7.768;2023-11-18T02:20:13;8.20;81.90
5868;DHT22;2960;49.142;7.768;2023-11-18T02:22:42;8.20;82.00
5868;DHT22;2960;49.142;7.768;2023-11-18T02:25:10;8.30;82.10
5868;DHT22;2960;49.142;7.768;2023-11-18T02:27:43;8.20;82.10
5868;DHT22;2960;49.142;7.768;2023-11-18T02:30:12;8.30;82.10
5868;DHT22;2960;49.142;7.768;2023-11-18T02:32:46;8.20;82.10
5868;DHT22;2960;49.142;7.768;2023-11-18T02:35:21;8.20;82.10
5868;DHT22;2960;49.142;7.768;2023-11-18T02:37:52;8.20;82.20
5868;DHT22;2960;49.142;7.768;2023-11-18T02:40:27;8.20;82.20
5868;DHT22;2960;49.142;7.768;2023-11-18T02:42:59;8.20;82.20
5868;DHT22;2960;49.142;7.768;2023-11-18T02:45:31;8.30;82.40
5868;DHT22;2960;49.142;7.768;2023-11-18T02:47:59;8.20;82.20
5868;DHT22;2960;49.142;7.768;2023-11-18T02:50:27;8.20;82.20
5868;DHT22;2960;49.142;7.768;2023-11-18T02:52:55;8.20;82.20
5868;DHT22;2960;49.142;7.768;2023-11-18T02:55:22;8.20;82.30
5868;DHT22;2960;49.142;7.768;2023-11-18T02:57:51;8.30;83.20
5868;DHT22;2960;49.142;7.768;2023-11-18T03:00:20;8.20;82.30
5868;DHT22;2960;49.142;7.768;2023-11-18T03:02:48;8.20;82.40
5868;DHT22;2960;49.142;7.768;2023-11-18T03:05:17;8.20;82.50
5868;DHT22;2960;49.142;7.768;2023-11-18T03:07:45;8.30;82.50
5868;DHT22;2960;49.142;7.768;2023-11-18T03:10:15;8.30;82.50
5868;DHT22;2960;49.142;7.768;2023-11-18T03:12:47;8.30;82.50
5868;DHT22;2960;49.142;7.768;2023-11-18T03:15:14;8.30;82.50
5868;DHT22;2960;49.142;7.768;2023-11-18T03:17:45;8.30;82.50
5868;DHT22;2960;49.142;7.768;2023-11-18T03:20:15;8.30;82.50
5868;DHT22;2960;49.142;7.768;2023-11-18T03:22:43;8.30;82.50
5868;DHT22;2960;49.142;7.768;2023-11-18T03:25:11;8.30;82.50
5868;DHT22;2960;49.142;7.768;2023-11-18T03:27:39;8.30;82.50
5868;DHT22;2960;49.142;7.768;2023-11-18T03:30:07;8.30;82.50
5868;DHT22;2960;49.142;7.768;2023-11-18T03:32:36;8.30;82.50
5868;DHT22;2960;49.142;7.768;2023-11-18T03:35:08;8.30;82.50
5868;DHT22;2960;49.142;7.768;2023-11-18T03:37:37;8.40;82.70
5868;DHT22;2960;49.142;7.768;2023-11-18T03:40:08;8.40;82.60
5868;DHT22;2960;49.142;7.768;2023-11-18T03:42:35;8.40;82.70
5868;DHT22;2960;49.142;7.768;2023-11-18T03:45:03;8.50;82.80
5868;DHT22;2960;49.142;7.768;2023-11-18T03:47:31;8.40;82.70
5868;DHT22;2960;49.142;7.768;2023-11-18T03:49:59;8.40;82.70
5868;DHT22;2960;49.142;7.768;2023-11-18T03:52:28;8.40;83.50
5868;DHT22;2960;49.142;7.768;2023-11-18T03:54:55;8.40;82.80
5868;DHT22;2960;49.142;7.768;2023-11-18T03:57:22;8.40;82.80
5868;DHT22;2960;49.142;7.768;2023-11-18T03:59:52;8.40;83.60
5868;DHT22;2960;49.142;7.768;2023-11-18T04:02:19;8.40;82.80
5868;DHT22;2960;49.142;7.768;2023-11-18T04:04:46;8.40;82.70
5868;DHT22;2960;49.142;7.768;2023-11-18T04:07:14;8.40;82.80
5868;DHT22;2960;49.142;7.768;2023-11-18T04:09:42;8.50;82.90
5868;DHT22;2960;49.142;7.768;2023-11-18T04:12:09;8.40;83.60
5868;DHT22;2960;49.142;7.768;2023-11-18T04:14:37;8.40;82.80
5868;DHT22;2960;49.142;7.768;2023-11-18T04:17:04;8.40;82.80
5868;DHT22;2960;49.142;7.768;2023-11-18T04:19:31;8.40;82.80
5868;DHT22;2960;49.142;7.768;2023-11-18T04:21:58;8.40;82.80
5868;DHT22;2960;49.142;7.768;2023-11-18T04:24:25;8.40;82.80
5868;DHT22;2960;49.142;7.768;2023-11-18T04:26:54;8.40;82.80
5868;DHT22;2960;49.142;7.768;2023-11-18T04:29:21;8.40;82.80
5868;DHT22;2960;49.142;7.768;2023-11-18T04:31:48;8.40;82.90
5868;DHT22;2960;49.142;7.768;2023-11-18T04:34:15;8.40;82.90
5868;DHT22;2960;49.142;7.768;2023-11-18T04:36:43;8.40;82.80
5868;DHT22;2960;49.142;7.768;2023-11-18T04:39:10;8.40;82.80
5868;DHT22;2960;49.142;7.768;2023-11-18T04:41:38;8.40;82.90
5868;DHT22;2960;49.142;7.768;2023-11-18T04:44:06;8.40;82.90
5868;DHT22;2960;49.142;7.768;2023-11-18T04:46:33;8.40;82.80
5868;DHT22;2960;49.142;7.768;2023-11-18T04:49:01;8.40;82.90
5868;DHT22;2960;49.142;7.768;2023-11-18T04:51:28;8.40;82.90
5868;DHT22;2960;49.142;7.768;2023-11-18T04:53:55;8.40;83.00
5868;DHT22;2960;49.142;7.768;2023-11-18T04:56:22;8.40;83.00
5868;DHT22;2960;49.142;7.768;2023-11-18T04:58:49;8.40;83.00
5868;DHT22;2960;49.142;7.768;2023-11-18T05:01:18;8.40;83.00
5868;DHT22;2960;49.142;7.768;2023-11-18T05:03:45;8.40;83.10
5868;DHT22;2960;49.142;7.768;2023-11-18T05:06:13;8.40;83.10
5868;DHT22;2960;49.142;7.768;2023-11-18T05:08:40;8.40;83.10
5868;DHT22;2960;49.142;7.768;2023-11-18T05:11:07;8.40;83.10
5868;DHT22;2960;49.142;7.768;2023-11-18T05:13:34;8.40;83.10
5868;DHT22;2960;49.142;7.768;2023-11-18T05:16:01;8.40;83.10
5868;DHT22;2960;49.142;7.768;2023-11-18T05:18:30;8.40;83.10
5868;DHT22;2960;49.142;7.768;2023-11-18T05:21:02;8.40;83.10
5868;DHT22;2960;49.142;7.768;2023-11-18T05:23:30;8.40;83.10
5868;DHT22;2960;49.142;7.768;2023-11-18T05:25:57;8.40;83.10
5868;DHT22;2960;49.142;7.768;2023-11-18T05:28:25;8.40;83.10
5868;DHT22;2960;49.142;7.768;2023-11-18T05:30:52;8.40;83.20
5868;DHT22;2960;49.142;7.768;2023-11-18T05:33:23;8.40;83.20
5868;DHT22;2960;49.142;7.768;2023-11-18T05:35:53;8.40;83.20
5868;DHT22;2960;49.142;7.768;2023-11-18T05:38:20;8.40;83.20
5868;DHT22;2960;49.142;7.768;2023-11-18T05:40:49;8.40;83.20
5868;DHT22;2960;49.142;7.768;2023-11-18T05:43:22;8.40;83.20
5868;DHT22;2960;49.142;7.768;2023-11-18T05:45:51;8.40;83.20
5868;DHT22;2960;49.142;7.768;2023-11-18T05:48:38;8.40;83.20
5868;DHT22;2960;49.142;7.768;2023-11-18T05:51:10;8.40;83.10
5868;DHT22;2960;49.142;7.768;2023-11-18T05:53:39;8.40;83.20
5868;DHT22;2960;49.142;7.768;2023-11-18T05:56:09;8.50;83.30
5868;DHT22;2960;49.142;7.768;2023-11-18T05:58:36;8.40;83.20
5868;DHT22;2960;49.142;7.768;2023-11-18T06:01:04;8.50;83.30
5868;DHT22;2960;49.142;7.768;2023-11-18T06:03:33;8.50;83.30
5868;DHT22;2960;49.142;7.768;2023-11-18T06:06:04;8.50;83.30
5868;DHT22;2960;49.142;7.768;2023-11-18T06:08:34;8.50;83.30
5868;DHT22;2960;49.142;7.768;2023-11-18T06:11:01;8.50;83.20
5868;DHT22;2960;49.142;7.768;2023-11-18T06:13:39;8.50;83.20
5868;DHT22;2960;49.142;7.768;2023-11-18T06:16:13;8.50;83.20
5868;DHT22;2960;49.142;7.768;2023-11-18T06:18:42;8.50;83.20
5868;DHT22;2960;49.142;7.768;2023-11-18T06:21:12;8.50;83.20
5868;DHT22;2960;49.142;7.768;2023-11-18T06:23:40;8.50;83.20
5868;DHT22;2960;49.142;7.768;2023-11-18T06:26:08;8.50;83.20
5868;DHT22;2960;49.142;7.768;2023-11-18T06:28:38;8.50;83.20
5868;DHT22;2960;49.142;7.768;2023-11-18T06:31:05;8.50;83.30
5868;DHT22;2960;49.142;7.768;2023-11-18T06:33:37;8.50;83.30
5868;DHT22;2960;49.142;7.768;2023-11-18T06:36:08;8.50;83.30
5868;DHT22;2960;49.142;7.768;2023-11-18T06:38:37;8.50;83.20
5868;DHT22;2960;49.142;7.768;2023-11-18T06:41:06;8.50;83.20
5868;DHT22;2960;49.142;7.768;2023-11-18T06:43:38;8.50;83.30
5868;DHT22;2960;49.142;7.768;2023-11-18T06:46:18;8.50;83.20
5868;DHT22;2960;49.142;7.768;2023-11-18T06:48:47;8.50;83.20
5868;DHT22;2960;49.142;7.768;2023-11-18T06:51:15;8.50;83.90
5868;DHT22;2960;49.142;7.768;2023-11-18T06:53:44;8.50;83.10
5868;DHT22;2960;49.142;7.768;2023-11-18T06:56:11;8.60;84.00
5868;DHT22;2960;49.142;7.768;2023-11-18T06:58:39;8.60;83.20
5868;DHT22;2960;49.142;7.768;2023-11-18T07:01:07;8.60;83.30
5868;DHT22;2960;49.142;7.768;2023-11-18T07:03:35;8.60;83.30
5868;DHT22;2960;49.142;7.768;2023-11-18T07:06:02;8.60;83.20
5868;DHT22;2960;49.142;7.768;2023-11-18T07:08:31;8.60;83.20
5868;DHT22;2960;49.142;7.768;2023-11-18T07:11:00;8.60;83.20
5868;DHT22;2960;49.142;7.768;2023-11-18T07:13:27;8.60;83.10
5868;DHT22;2960;49.142;7.768;2023-11-18T07:15:54;8.70;83.20
5868;DHT22;2960;49.142;7.768;2023-11-18T07:18:22;8.60;83.10
5868;DHT22;2960;49.142;7.768;2023-11-18T07:20:49;8.70;83.10
5868;DHT22;2960;49.142;7.768;2023-11-18T07:23:18;8.70;83.00
5868;DHT22;2960;49.142;7.768;2023-11-18T07:25:45;8.60;82.90
5868;DHT22;2960;49.142;7.768;2023-11-18T07:28:14;8.70;83.00
5868;DHT22;2960;49.142;7.768;2023-11-18T07:30:43;8.70;83.00
5868;DHT22;2960;49.142;7.768;2023-11-18T07:33:13;8.60;83.00
5868;DHT22;2960;49.142;7.768;2023-11-18T07:35:40;8.60;82.90
5868;DHT22;2960;49.142;7.768;2023-11-18T07:38:07;8.60;82.90
5868;DHT22;2960;49.142;7.768;2023-11-18T07:40:36;8.70;83.80
5868;DHT22;2960;49.142;7.768;2023-11-18T07:43:07;8.70;83.00
5868;DHT22;2960;49.142;7.768;2023-11-18T07:45:37;8.70;83.10
5868;DHT22;2960;49.142;7.768;2023-11-18T07:48:05;8.70;83.10
5868;DHT22;2960;49.142;7.768;2023-11-18T07:50:34;8.70;83.10
5868;DHT22;2960;49.142;7.768;2023-11-18T07:53:01;8.80;83.10
5868;DHT22;2960;49.142;7.768;2023-11-18T07:55:29;8.80;83.00
5868;DHT22;2960;49.142;7.768;2023-11-18T07:57:57;8.90;82.90
5868;DHT22;2960;49.142;7.768;2023-11-18T08:00:24;8.90;82.90
5868;DHT22;2960;49.142;7.768;2023-11-18T08:02:53;8.90;82.90
5868;DHT22;2960;49.142;7.768;2023-11-18T08:05:20;8.90;82.80
5868;DHT22;2960;49.142;7.768;2023-11-18T08:07:49;8.90;82.80
5868;DHT22;2960;49.142;7.768;2023-11-18T08:10:19;8.90;82.80
5868;DHT22;2960;49.142;7.768;2023-11-18T08:12:47;9.00;83.00
5868;DHT22;2960;49.142;7.768;2023-11-18T08:15:14;9.00;83.00
5868;DHT22;2960;49.142;7.768;2023-11-18T08:17:41;9.00;83.00
5868;DHT22;2960;49.142;7.768;2023-11-18T08:20:10;9.00;83.00
5868;DHT22;2960;49.142;7.768;2023-11-18T08:22:40;8.90;82.90
5868;DHT22;2960;49.142;7.768;2023-11-18T08:25:09;9.00;83.00
5868;DHT22;2960;49.142;7.768;2023-11-18T08:27:39;9.00;83.00
5868;DHT22;2960;49.142;7.768;2023-11-18T08:30:07;9.00;83.00
5868;DHT22;2960;49.142;7.768;2023-11-18T08:32:37;9.00;83.00
5868;DHT22;2960;49.142;7.768;2023-11-18T08:35:05;9.00;82.90
5868;DHT22;2960;49.142;7.768;2023-11-18T08:37:35;9.10;83.00
5868;DHT22;2960;49.142;7.768;2023-11-18T08:40:03;9.10;83.00
5868;DHT22;2960;49.142;7.768;2023-11-18T08:42:32;9.10;82.90
5868;DHT22;2960;49.142;7.768;2023-11-18T08:45:00;9.20;83.00
5868;DHT22;2960;49.142;7.768;2023-11-18T08:47:27;9.20;82.90
5868;DHT22;2960;49.142;7.768;2023-11-18T08:49:57;9.20;82.90
5868;DHT22;2960;49.142;7.768;2023-11-18T08:52:38;9.20;82.70
5868;DHT22;2960;49.142;7.768;2023-11-18T08:55:10;9.20;82.50
5868;DHT22;2960;49.142;7.768;2023-11-18T08:57:47;9.20;82.50
5868;DHT22;2960;49.142;7.768;2023-11-18T09:00:18;9.20;82.50
5868;DHT22;2960;49.142;7.768;2023-11-18T09:02:59;9.30;82.70
5868;DHT22;2960;49.142;7.768;2023-11-18T09:05:32;9.30;82.60
5868;DHT22;2960;49.142;7.768;2023-11-18T09:08:02;9.30;82.50
5868;DHT22;2960;49.142;7.768;2023-11-18T09:10:31;9.30;82.50
5868;DHT22;2960;49.142;7.768;2023-11-18T09:12:59;9.40;82.60
5868;DHT22;2960;49.142;7.768;2023-11-18T09:15:29;9.60;82.70
5868;DHT22;2960;49.142;7.768;2023-11-18T09:17:56;9.40;82.40
5868;DHT22;2960;49.142;7.768;2023-11-18T09:20:25;9.50;82.30
5868;DHT22;2960;49.142;7.768;2023-11-18T09:22:55;9.60;82.30
5868;DHT22;2960;49.142;7.768;2023-11-18T09:25:23;9.60;82.10
5868;DHT22;2960;49.142;7.768;2023-11-18T09:27:50;9.60;82.00
5868;DHT22;2960;49.142;7.768;2023-11-18T09:30:17;9.70;81.90
5868;DHT22;2960;49.142;7.768;2023-11-18T09:32:44;9.70;81.80
5868;DHT22;2960;49.142;7.768;2023-11-18T09:35:13;9.80;81.80
5868;DHT22;2960;49.142;7.768;2023-11-18T09:37:40;9.70;81.60
5868;DHT22;2960;49.142;7.768;2023-11-18T09:40:09;9.80;81.60
5868;DHT22;2960;49.142;7.768;2023-11-18T09:42:42;9.80;81.40
5868;DHT22;2960;49.142;7.768;2023-11-18T09:45:10;9.80;81.30
5868;DHT22;2960;49.142;7.768;2023-11-18T09:47:42;9.80;81.20
5868;DHT22;2960;49.142;7.768;2023-11-18T09:50:16;9.80;81.20
5868;DHT22;2960;49.142;7.768;2023-11-18T09:52:48;9.80;81.10
5868;DHT22;2960;49.142;7.768;2023-11-18T09:55:26;9.80;81.10
5868;DHT22;2960;49.142;7.768;2023-11-18T09:58:03;9.90;81.10
5868;DHT22;2960;49.142;7.768;2023-11-18T10:00:35;9.90;81.00
5868;DHT22;2960;49.142;7.768;2023-11-18T10:03:07;9.90;80.90
5868;DHT22;2960;49.142;7.768;2023-11-18T10:05:40;9.90;80.80
5868;DHT22;2960;49.142;7.768;2023-11-18T10:08:08;9.90;80.60
5868;DHT22;2960;49.142;7.768;2023-11-18T10:10:35;10.00;79.40
5868;DHT22;2960;49.142;7.768;2023-11-18T10:13:04;10.00;79.30
5868;DHT22;2960;49.142;7.768;2023-11-18T10:15:47;10.00;79.20
5868;DHT22;2960;49.142;7.768;2023-11-18T10:18:18;10.00;79.20
5868;DHT22;2960;49.142;7.768;2023-11-18T10:20:49;10.00;79.10
5868;DHT22;2960;49.142;7.768;2023-11-18T10:23:21;10.00;79.10
5868;DHT22;2960;49.142;7.768;2023-11-18T10:25:50;10.10;79.10
5868;DHT22;2960;49.142;7.768;2023-11-18T10:28:24;10.00;78.90
5868;DHT22;2960;49.142;7.768;2023-11-18T10:30:53;10.10;78.90
5868;DHT22;2960;49.142;7.768;2023-11-18T10:33:19;10.10;78.80
5868;DHT22;2960;49.142;7.768;2023-11-18T10:35:50;10.10;78.80
5868;DHT22;2960;49.142;7.768;2023-11-18T10:38:21;10.10;78.70
5868;DHT22;2960;49.142;7.768;2023-11-18T10:40:52;10.10;78.70
5868;DHT22;2960;49.142;7.768;2023-11-18T10:43:21;10.10;78.60
5868;DHT22;2960;49.142;7.768;2023-11-18T10:46:04;10.10;78.50
5868;DHT22;2960;49.142;7.768;2023-11-18T10:48:38;10.10;78.40
5868;DHT22;2960;49.142;7.768;2023-11-18T10:51:09;10.10;78.40
5868;DHT22;2960;49.142;7.768;2023-11-18T10:53:39;10.10;78.30
5868;DHT22;2960;49.142;7.768;2023-11-18T10:56:17;10.10;78.60
5868;DHT22;2960;49.142;7.768;2023-11-18T10:58:51;10.10;78.50
5868;DHT22;2960;49.142;7.768;2023-11-18T11:01:27;10.10;78.40
5868;DHT22;2960;49.142;7.768;2023-11-18T11:03:57;10.20;79.20
5868;DHT22;2960;49.142;7.768;2023-11-18T11:06:26;10.10;78.30
5868;DHT22;2960;49.142;7.768;2023-11-18T11:08:56;10.10;78.30
5868;DHT22;2960;49.142;7.768;2023-11-18T11:11:30;10.10;78.30
5868;DHT22;2960;49.142;7.768;2023-11-18T11:14:04;10.10;78.30
5868;DHT22;2960;49.142;7.768;2023-11-18T11:16:40;10.10;78.90
5868;DHT22;2960;49.142;7.768;2023-11-18T11:19:13;10.10;78.20
5868;DHT22;2960;49.142;7.768;2023-11-18T11:21:52;10.10;78.10
5868;DHT22;2960;49.142;7.768;2023-11-18T11:24:32;10.20;78.20
5868;DHT22;2960;49.142;7.768;2023-11-18T11:27:14;10.10;78.10
5868;DHT22;2960;49.142;7.768;2023-11-18T11:30:00;10.10;78.00
5868;DHT22;2960;49.142;7.768;2023-11-18T11:32:39;10.10;77.90
5868;DHT22;2960;49.142;7.768;2023-11-18T11:35:18;10.10;77.80
5868;DHT22;2960;49.142;7.768;2023-11-18T11:37:49;10.00;77.60
5868;DHT22;2960;49.142;7.768;2023-11-18T11:40:18;10.00;77.50
5868;DHT22;2960;49.142;7.768;2023-11-18T11:42:50;10.00;77.50
5868;DHT22;2960;49.142;7.768;2023-11-18T11:45:23;10.10;77.60
5868;DHT22;2960;49.142;7.768;2023-11-18T11:47:55;10.00;77.50
5868;DHT22;2960;49.142;7.768;2023-11-18T11:53:44;10.00;77.50
5868;DHT22;2960;49.142;7.768;2023-11-18T11:56:14;10.00;77.50
5868;DHT22;2960;49.142;7.768;2023-11-18T11:58:46;10.00;77.40
5868;DHT22;2960;49.142;7.768;2023-11-18T12:01:35;10.10;77.50
5868;DHT22;2960;49.142;7.768;2023-11-18T12:04:03;10.10;77.70
5868;DHT22;2960;49.142;7.768;2023-11-18T12:06:41;10.20;78.10
5868;DHT22;2960;49.142;7.768;2023-11-18T12:09:10;10.30;77.90
5868;DHT22;2960;49.142;7.768;2023-11-18T12:11:45;10.30;77.60
5868;DHT22;2960;49.142;7.768;2023-11-18T12:14:15;10.30;77.50
5868;DHT22;2960;49.142;7.768;2023-11-18T12:17:06;10.40;77.40
5868;DHT22;2960;49.142;7.768;2023-11-18T12:19:36;10.40;77.30
5868;DHT22;2960;49.142;7.768;2023-11-18T12:22:11;10.40;77.20
5868;DHT22;2960;49.142;7.768;2023-11-18T12:28:07;10.40;77.10
5868;DHT22;2960;49.142;7.768;2023-11-18T12:30:38;10.40;77.10
5868;DHT22;2960;49.142;7.768;2023-11-18T12:33:10;10.40;77.20
5868;DHT22;2960;49.142;7.768;2023-11-18T12:36:09;10.40;77.20
5868;DHT22;2960;49.142;7.768;2023-11-18T12:39:32;10.40;77.10
5868;DHT22;2960;49.142;7.768;2023-11-18T12:43:01;10.40;77.00
5868;DHT22;2960;49.142;7.768;2023-11-18T12:45:57;10.40;77.00
5868;DHT22;2960;49.142;7.768;2023-11-18T12:48:51;10.40;77.00
5868;DHT22;2960;49.142;7.768;2023-11-18T12:51:22;10.40;77.10
5868;DHT22;2960;49.142;7.768;2023-11-18T12:53:50;10.40;77.10
5868;DHT22;2960;49.142;7.768;2023-11-18T12:56:19;10.40;77.00
5868;DHT22;2960;49.142;7.768;2023-11-18T12:58:48;10.40;76.90
5868;DHT22;2960;49.142;7.768;2023-11-18T13:01:16;10.40;76.90
5868;DHT22;2960;49.142;7.768;2023-11-18T13:03:44;10.40;76.90
5868;DHT22;2960;49.142;7.768;2023-11-18T13:06:16;10.40;76.80
5868;DHT22;2960;49.142;7.768;2023-11-18T13:08:43;10.40;76.90
5868;DHT22;2960;49.142;7.768;2023-11-18T13:11:11;10.50;77.00
5868;DHT22;2960;49.142;7.768;2023-11-18T13:13:41;10.40;76.70
5868;DHT22;2960;49.142;7.768;2023-11-18T13:16:09;10.40;76.70
5868;DHT22;2960;49.142;7.768;2023-11-18T13:18:46;10.40;76.60
5868;DHT22;2960;49.142;7.768;2023-11-18T13:21:20;10.40;76.70
5868;DHT22;2960;49.142;7.768;2023-11-18T13:23:53;10.40;76.60
5868;DHT22;2960;49.142;7.768;2023-11-18T13:26:21;10.40;76.50
5868;DHT22;2960;49.142;7.768;2023-11-18T13:28:50;10.40;76.40
5868;DHT22;2960;49.142;7.768;2023-11-18T13:31:17;10.30;76.20
5868;DHT22;2960;49.142;7.768;2023-11-18T13:33:47;10.30;76.00
5868;DHT22;2960;49.142;7.768;2023-11-18T13:36:15;10.30;76.30
5868;DHT22;2960;49.142;7.768;2023-11-18T13:38:47;10.30;76.20
5868;DHT22;2960;49.142;7.768;2023-11-18T13:41:28;10.30;76.20
5868;DHT22;2960;49.142;7.768;2023-11-18T13:43:56;10.30;76.20
5868;DHT22;2960;49.142;7.768;2023-11-18T13:46:24;10.30;76.20
5868;DHT22;2960;49.142;7.768;2023-11-18T13:48:53;10.30;76.20
5868;DHT22;2960;49.142;7.768;2023-11-18T13:51:20;10.30;75.90
5868;DHT22;2960;49.142;7.768;2023-11-18T13:53:49;10.30;75.90
5868;DHT22;2960;49.142;7.768;2023-11-18T13:56:19;10.30;75.80
5868;DHT22;2960;49.142;7.768;2023-11-18T13:58:48;10.30;76.00
5868;DHT22;2960;49.142;7.768;2023-11-18T14:01:15;10.40;76.10
5868;DHT22;2960;49.142;7.768;2023-11-18T14:03:42;10.40;76.00
5868;DHT22;2960;49.142;7.768;2023-11-18T14:06:10;10.40;75.90
5868;DHT22;2960;49.142;7.768;2023-11-18T14:08:38;10.50;75.90
5868;DHT22;2960;49.142;7.768;2023-11-18T14:11:06;10.50;75.90
5868;DHT22;2960;49.142;7.768;2023-11-18T14:13:36;10.50;76.50
5868;DHT22;2960;49.142;7.768;2023-11-18T14:16:04;10.50;75.70
5868;DHT22;2960;49.142;7.768;2023-11-18T14:18:35;10.60;75.80
5868;DHT22;2960;49.142;7.768;2023-11-18T14:21:03;10.60;75.80
5868;DHT22;2960;49.142;7.768;2023-11-18T14:23:31;10.60;75.70
5868;DHT22;2960;49.142;7.768;2023-11-18T14:25:58;10.50;76.20
5868;DHT22;2960;49.142;7.768;2023-11-18T14:28:27;10.50;75.40
5868;DHT22;2960;49.142;7.768;2023-11-18T14:30:54;10.50;75.50
5868;DHT22;2960;49.142;7.768;2023-11-18T14:33:21;10.50;75.50
5868;DHT22;2960;49.142;7.768;2023-11-18T14:35:48;10.50;75.50
5868;DHT22;2960;49.142;7.768;2023-11-18T14:38:16;10.40;75.40
5868;DHT22;2960;49.142;7.768;2023-11-18T14:40:45;10.40;75.40
5868;DHT22;2960;49.142;7.768;2023-11-18T14:43:14;10.50;75.60
5868;DHT22;2960;49.142;7.768;2023-11-18T14:45:42;10.40;75.50
5868;DHT22;2960;49.142;7.768;2023-11-18T14:48:09;10.40;75.50
5868;DHT22;2960;49.142;7.768;2023-11-18T14:50:37;10.40;75.60
5868;DHT22;2960;49.142;7.768;2023-11-18T14:53:04;10.40;76.40
5868;DHT22;2960;49.142;7.768;2023-11-18T14:55:31;10.40;76.80
5868;DHT22;2960;49.142;7.768;2023-11-18T14:57:59;10.50;77.40
5868;DHT22;2960;49.142;7.768;2023-11-18T15:00:26;10.60;76.40
5868;DHT22;2960;49.142;7.768;2023-11-18T15:02:59;10.50;76.00
5868;DHT22;2960;49.142;7.768;2023-11-18T15:05:26;10.50;75.80
5868;DHT22;2960;49.142;7.768;2023-11-18T15:07:54;10.60;76.60
5868;DHT22;2960;49.142;7.768;2023-11-18T15:10:23;10.50;75.80
5868;DHT22;2960;49.142;7.768;2023-11-18T15:12:51;10.50;75.80
5868;DHT22;2960;49.142;7.768;2023-11-18T15:15:21;10.50;75.80
5868;DHT22;2960;49.142;7.768;2023-11-18T15:17:48;10.50;75.80
5868;DHT22;2960;49.142;7.768;2023-11-18T15:20:18;10.40;75.60
5868;DHT22;2960;49.142;7.768;2023-11-18T15:22:45;10.40;75.60
5868;DHT22;2960;49.142;7.768;2023-11-18T15:25:12;10.40;75.60
5868;DHT22;2960;49.142;7.768;2023-11-18T15:27:40;10.30;75.50
5868;DHT22;2960;49.142;7.768;2023-11-18T15:30:09;10.30;76.00
5868;DHT22;2960;49.142;7.768;2023-11-18T15:32:38;10.40;76.10
5868;DHT22;2960;49.142;7.768;2023-11-18T15:35:07;10.30;76.00
5868;DHT22;2960;49.142;7.768;2023-11-18T15:37:37;10.30;75.90
5868;DHT22;2960;49.142;7.768;2023-11-18T15:40:08;10.30;75.90
5868;DHT22;2960;49.142;7.768;2023-11-18T15:42:37;10.30;75.90
5868;DHT22;2960;49.142;7.768;2023-11-18T15:45:07;10.30;75.90
5868;DHT22;2960;49.142;7.768;2023-11-18T15:47:36;10.30;75.90
5868;DHT22;2960;49.142;7.768;2023-11-18T15:50:05;10.20;75.80
5868;DHT22;2960;49.142;7.768;2023-11-18T15:52:33;10.20;75.80
5868;DHT22;2960;49.142;7.768;2023-11-18T15:55:03;10.20;75.80
5868;DHT22;2960;49.142;7.768;2023-11-18T15:57:37;10.20;75.80
5868;DHT22;2960;49.142;7.768;2023-11-18T16:00:06;10.10;75.80
5868;DHT22;2960;49.142;7.768;2023-11-18T16:02:40;10.10;75.80
5868;DHT22;2960;49.142;7.768;2023-11-18T16:05:07;10.10;75.80
5868;DHT22;2960;49.142;7.768;2023-11-18T16:07:35;10.00;75.60
5868;DHT22;2960;49.142;7.768;2023-11-18T16:10:05;10.00;75.60
5868;DHT22;2960;49.142;7.768;2023-11-18T16:12:32;10.00;75.60
5868;DHT22;2960;49.142;7.768;2023-11-18T16:15:00;10.00;75.40
5868;DHT22;2960;49.142;7.768;2023-11-18T16:17:27;10.00;75.40
5868;DHT22;2960;49.142;7.768;2023-11-18T16:19:54;10.00;75.30
5868;DHT22;2960;49.142;7.768;2023-11-18T16:22:21;9.90;76.40
5868;DHT22;2960;49.142;7.768;2023-11-18T16:24:49;9.90;76.40
5868;DHT22;2960;49.142;7.768;2023-11-18T16:27:18;9.90;76.40
5868;DHT22;2960;49.142;7.768;2023-11-18T16:29:45;9.90;76.20
5868;DHT22;2960;49.142;7.768;2023-11-18T16:32:12;9.90;76.10
5868;DHT22;2960;49.142;7.768;2023-11-18T16:34:39;9.90;76.10
5868;DHT22;2960;49.142;7.768;2023-11-18T16:37:06;9.90;76.70